Time;durP1;ratioP1;P1;durP2;ratioP2;P2;SDS_P1;SDS_P2;PMS_P1;PMS_P2;Temp;Humidity;BMP_temperature;BMP_pressure;BME280_temperature;BME280_humidity;BME280_pressure;Samples;Min_cycle;Max_cycle;Signal;HPM_P1;HPM_P2
2022/11/10 00:00:13;;;;;;;59.70;30.43;;;;;;;3.27;100.00;100083.00;1663679;85;21276;-73
2022/11/10 00:03:03;;;;;;;67.35;32.48;;;;;;;3.27;100.00;100080.29;1662659;84;21131;-73
2022/11/10 00:05:54;;;;;;;59.88;30.62;;;;;;;3.27;100.00;100081.64;1672685;84;21066;-72
2022/11/10 00:08:40;;;;;;;54.90;29.30;;;;;;;3.26;100.00;100075.40;1669421;83;20994;-72
2022/11/10 00:11:28;;;;;;;60.70;30.48;;;;;;;3.27;100.00;100069.44;1647710;84;21023;-72
2022/11/10 00:17:21;;;;;;;64.87;30.50;;;;;;;3.23;100.00;100066.41;1681639;83;20940;-73
2022/11/10 00:20:07;;;;;;;61.55;30.80;;;;;;;3.21;100.00;100071.27;1667352;84;21114;-73
2022/11/10 00:22:58;;;;;;;64.15;29.98;;;;;;;3.20;100.00;100068.81;1677394;84;21059;-73
2022/11/10 00:25:45;;;;;;;57.78;30.08;;;;;;;3.19;100.00;100074.78;1711406;82;21295;-72
2022/11/10 00:28:37;;;;;;;52.15;27.73;;;;;;;3.19;100.00;100070.70;1718636;82;21973;-74
2022/11/10 00:31:28;;;;;;;56.63;28.12;;;;;;;3.18;100.00;100065.00;1652257;85;21594;-71
2022/11/10 00:34:17;;;;;;;57.03;29.72;;;;;;;3.16;100.00;100068.50;1672349;85;21046;-73
2022/11/10 00:37:03;;;;;;;55.35;27.55;;;;;;;3.13;100.00;100064.94;1672054;85;20933;-73
2022/11/10 00:39:53;;;;;;;64.90;31.23;;;;;;;3.10;100.00;100060.02;1650690;85;20988;-72
2022/11/10 00:42:41;;;;;;;66.50;29.48;;;;;;;3.12;100.00;100059.77;1672165;85;21076;-72
2022/11/10 00:45:26;;;;;;;56.15;29.80;;;;;;;3.12;100.00;100062.48;1672224;85;20965;-72
2022/11/10 00:48:13;;;;;;;73.45;35.20;;;;;;;3.12;100.00;100060.59;1672052;85;20913;-72
2022/11/10 00:50:58;;;;;;;69.75;32.55;;;;;;;3.12;100.00;100054.34;1650999;85;20961;-72
2022/11/10 00:53:46;;;;;;;67.85;34.27;;;;;;;3.09;100.00;100057.03;1672319;85;20961;-71
2022/11/10 00:56:40;;;;;;;65.65;29.57;;;;;;;3.06;100.00;100052.11;1651040;85;20937;-72
2022/11/10 00:59:27;;;;;;;65.37;32.95;;;;;;;3.03;100.00;100053.16;1672258;85;20988;-72
2022/11/10 01:02:16;;;;;;;59.20;29.27;;;;;;;2.99;100.00;100045.52;1651131;85;20901;-72
2022/11/10 01:05:09;;;;;;;61.02;27.93;;;;;;;2.98;100.00;100045.23;1672469;85;20941;-72
2022/11/10 01:07:53;;;;;;;64.87;30.82;;;;;;;2.97;100.00;100052.27;1669181;85;21020;-73
2022/11/10 01:10:46;;;;;;;62.00;31.40;;;;;;;2.96;100.00;100049.28;1648812;85;21056;-72
2022/11/10 01:13:34;;;;;;;58.38;30.23;;;;;;;2.95;100.00;100040.86;1672370;85;27499;-72
2022/11/10 01:16:25;;;;;;;59.18;30.17;;;;;;;2.93;100.00;100038.40;1672180;85;20905;-72
2022/11/10 01:19:13;;;;;;;69.97;33.08;;;;;;;2.94;100.00;100037.33;1672279;85;20917;-72
2022/11/10 01:21:59;;;;;;;63.13;30.57;;;;;;;2.95;100.00;100034.89;1672379;85;21526;-72
2022/11/10 01:24:53;;;;;;;66.30;32.58;;;;;;;2.96;100.00;100031.11;1672177;85;21120;-72
2022/11/10 01:27:44;;;;;;;60.08;28.35;;;;;;;2.99;100.00;100033.85;1672353;85;20870;-70
2022/11/10 01:30:34;;;;;;;55.90;28.67;;;;;;;2.97;100.00;100031.39;1672248;85;20900;-72
2022/11/10 01:33:22;;;;;;;57.35;28.65;;;;;;;2.99;100.00;100025.72;1672923;85;21023;-72
2022/11/10 01:36:07;;;;;;;59.38;28.40;;;;;;;3.00;100.00;100030.06;1672475;85;21480;-73
2022/11/10 01:38:54;;;;;;;58.98;29.75;;;;;;;2.99;100.00;100037.38;1672436;85;21824;-71
2022/11/10 01:41:42;;;;;;;58.23;28.20;;;;;;;3.00;100.00;100031.42;1650864;85;20976;-72
2022/11/10 01:44:30;;;;;;;49.15;26.95;;;;;;;3.01;100.00;100034.42;1651007;85;20949;-72
2022/11/10 01:47:17;;;;;;;59.05;27.32;;;;;;;3.02;100.00;100035.23;1650986;85;20968;-72
2022/11/10 01:50:08;;;;;;;54.20;25.60;;;;;;;3.02;100.00;100037.41;1672209;85;20909;-73
2022/11/10 01:52:58;;;;;;;49.63;26.93;;;;;;;3.01;100.00;100033.06;1672614;85;21116;-73
2022/11/10 01:55:47;;;;;;;52.75;26.55;;;;;;;3.04;100.00;100030.37;1623079;85;21515;-72
2022/11/10 01:58:38;;;;;;;54.95;25.50;;;;;;;3.05;100.00;100023.34;1672361;85;21433;-73
2022/11/10 02:01:22;;;;;;;55.20;25.92;;;;;;;3.07;100.00;100031.23;1672221;85;21035;-73
2022/11/10 02:04:12;;;;;;;54.10;27.20;;;;;;;3.07;100.00;100025.80;1672402;85;20956;-73
2022/11/10 02:06:59;;;;;;;58.00;27.60;;;;;;;3.08;100.00;100021.48;1672359;85;21891;-73
2022/11/10 02:09:47;;;;;;;53.20;25.08;;;;;;;3.10;100.00;100023.94;1672226;85;21567;-73
2022/11/10 02:12:40;;;;;;;50.73;25.60;;;;;;;3.09;100.00;100031.25;1672200;85;20897;-73
2022/11/10 02:15:28;;;;;;;55.70;26.15;;;;;;;3.10;100.00;100030.72;1672232;85;20989;-73
2022/11/10 02:18:19;;;;;;;48.52;24.12;;;;;;;3.09;100.00;100028.55;1672355;85;21008;-72
2022/11/10 02:21:10;;;;;;;59.30;26.07;;;;;;;3.09;100.00;100029.91;1672509;85;21255;-72
2022/11/10 02:23:59;;;;;;;56.48;26.42;;;;;;;3.14;100.00;100031.84;1650716;85;21484;-72
2022/11/10 02:26:54;;;;;;;49.10;22.75;;;;;;;3.20;100.00;100035.72;1672448;85;21024;-73
2022/11/10 02:29:45;;;;;;;54.50;26.55;;;;;;;3.28;100.00;100033.09;1672227;85;21452;-72
2022/11/10 02:32:37;;;;;;;53.77;26.77;;;;;;;3.35;100.00;100028.27;1651761;85;20885;-72
2022/11/10 02:35:23;;;;;;;49.98;23.12;;;;;;;3.45;100.00;100034.34;1672407;85;21256;-73
2022/11/10 02:38:16;;;;;;;52.78;24.70;;;;;;;3.53;100.00;100030.59;1651221;85;20857;-72
2022/11/10 02:41:00;;;;;;;51.68;25.27;;;;;;;3.60;100.00;100032.56;1672491;85;21456;-72
2022/11/10 02:43:52;;;;;;;51.02;25.15;;;;;;;3.66;100.00;100034.78;1650947;85;20961;-72
2022/11/10 02:46:37;;;;;;;50.55;23.57;;;;;;;3.71;100.00;100034.00;1667908;85;20941;-73
2022/11/10 02:49:23;;;;;;;54.75;25.10;;;;;;;3.74;100.00;100041.09;1661636;85;21852;-73
2022/11/10 02:52:14;;;;;;;47.50;23.73;;;;;;;3.78;100.00;100039.50;1630172;85;20952;-73
2022/11/10 02:55:02;;;;;;;47.90;24.90;;;;;;;3.83;100.00;100038.19;1644720;85;21064;-73
2022/11/10 02:57:51;;;;;;;46.35;23.60;;;;;;;3.86;100.00;100041.74;1716154;83;20955;-73
2022/11/10 03:00:38;;;;;;;47.48;24.65;;;;;;;3.93;100.00;100037.45;1713906;83;21550;-73
2022/11/10 03:03:27;;;;;;;43.85;22.80;;;;;;;3.97;100.00;100037.21;1714092;83;21147;-73
2022/11/10 03:06:15;;;;;;;41.15;20.77;;;;;;;4.02;100.00;100037.78;1689852;83;20927;-73
2022/11/10 03:09:06;;;;;;;49.25;22.50;;;;;;;4.07;100.00;100037.80;1710379;83;21090;-73
2022/11/10 03:11:50;;;;;;;45.67;23.95;;;;;;;4.11;100.00;100037.02;1657300;85;21003;-74
2022/11/10 03:14:35;;;;;;;43.85;22.30;;;;;;;4.17;100.00;100035.15;1716917;83;21010;-74
2022/11/10 03:17:23;;;;;;;45.15;22.60;;;;;;;4.20;100.00;100034.63;1695850;83;20943;-74
2022/11/10 03:20:14;;;;;;;44.13;21.90;;;;;;;4.22;100.00;100028.39;1717091;83;21062;-74
2022/11/10 03:23:05;;;;;;;45.73;21.50;;;;;;;4.24;100.00;100029.77;1712147;83;21569;-74
2022/11/10 03:25:54;;;;;;;42.58;21.15;;;;;;;4.26;100.00;100026.78;1691634;83;21054;-74
2022/11/10 03:28:43;;;;;;;48.58;23.15;;;;;;;4.27;100.00;100026.52;1667828;85;21035;-74
2022/11/10 03:31:33;;;;;;;46.30;22.75;;;;;;;4.28;100.00;100022.73;1703675;82;22036;-73
2022/11/10 03:34:23;;;;;;;43.02;23.00;;;;;;;4.30;100.00;100024.64;1720098;82;20982;-71
2022/11/10 03:37:12;;;;;;;44.27;21.57;;;;;;;4.33;100.00;100027.91;1689410;83;20988;-73
2022/11/10 03:39:59;;;;;;;43.87;21.15;;;;;;;4.38;100.00;100026.58;1711752;82;21439;-72
2022/11/10 03:42:49;;;;;;;49.55;23.50;;;;;;;4.41;100.00;100028.78;1724110;82;21505;-72
2022/11/10 03:45:37;;;;;;;39.23;20.85;;;;;;;4.40;100.00;100023.06;1668782;83;20987;-73
2022/11/10 03:48:29;;;;;;;39.60;19.95;;;;;;;4.39;100.00;100023.61;1664214;84;21476;-73
2022/11/10 03:51:24;;;;;;;40.85;20.90;;;;;;;4.39;100.00;100018.16;1641067;86;20924;-73
2022/11/10 03:54:08;;;;;;;47.80;22.45;;;;;;;4.40;100.00;100023.06;1668830;85;21463;-73
2022/11/10 03:57:01;;;;;;;44.95;21.40;;;;;;;4.40;100.00;100022.52;1630778;85;21720;-73
2022/11/10 03:59:49;;;;;;;41.20;20.37;;;;;;;4.40;100.00;100021.16;1652673;85;21956;-72
2022/11/10 04:02:34;;;;;;;42.70;21.15;;;;;;;4.41;100.00;100012.47;1672230;85;20957;-71
2022/11/10 04:17:53;;;;;;;43.78;20.77;;;;;;;4.42;100.00;100020.90;1672245;85;21050;-73
2022/11/10 04:20:41;;;;;;;42.78;21.45;;;;;;;4.41;100.00;100026.06;1672382;85;20969;-71
2022/11/10 04:23:33;;;;;;;49.85;21.80;;;;;;;4.42;100.00;100025.80;1672399;85;20948;-73
2022/11/10 04:26:29;;;;;;;;;;;;;;;4.43;100.00;100021.17;1630171;85;21459;-75
2022/11/10 04:29:19;;;;;;;37.17;19.37;;;;;;;4.44;100.00;100020.91;1672161;85;21567;-72
2022/11/10 04:32:08;;;;;;;39.33;20.77;;;;;;;4.43;100.00;100023.89;1672609;85;20900;-70
2022/11/10 04:34:57;;;;;;;42.08;21.20;;;;;;;4.45;100.00;100020.37;1672294;85;20897;-75
2022/11/10 04:37:48;;;;;;;43.92;22.13;;;;;;;4.46;100.00;100032.34;1651198;85;21472;-73
2022/11/10 04:40:33;;;;;;;40.75;22.93;;;;;;;4.50;100.00;100025.84;1672228;85;21638;-74
2022/11/10 04:43:24;;;;;;;44.13;23.00;;;;;;;4.51;100.00;100028.83;1651273;85;20898;-73
2022/11/10 04:46:38;;;;;;;43.30;22.13;;;;;;;4.49;100.00;100026.38;1672319;85;20937;-73
2022/11/10 04:49:27;;;;;;;42.93;22.17;;;;;;;4.47;100.00;100019.03;1672410;85;21024;-73
2022/11/10 04:52:17;;;;;;;42.17;23.38;;;;;;;4.47;100.00;100031.80;1669744;85;21020;-77
2022/11/10 04:55:14;;;;;;;46.90;24.85;;;;;;;4.46;100.00;100032.88;1657972;86;21123;-73
2022/11/10 04:58:06;;;;;;;44.93;24.55;;;;;;;4.47;100.00;100033.98;1658045;86;21820;-78
2022/11/10 05:00:54;;;;;;;44.53;23.85;;;;;;;4.47;100.00;100039.42;1635434;86;22302;-73
2022/11/10 05:03:46;;;;;;;54.20;25.68;;;;;;;4.47;100.00;100038.59;1658278;86;20932;-73
2022/11/10 05:06:35;;;;;;;45.10;26.10;;;;;;;4.48;100.00;100039.70;1635313;86;21467;-75
2022/11/10 05:09:22;;;;;;;48.58;25.90;;;;;;;4.53;100.00;100038.36;1658211;85;20956;-75
2022/11/10 05:12:11;;;;;;;48.15;25.25;;;;;;;4.56;100.00;100041.91;1660813;85;21807;-71
2022/11/10 05:15:02;;;;;;;53.02;26.82;;;;;;;4.56;100.00;100045.17;1670191;85;21571;-71
2022/11/10 05:17:52;;;;;;;50.40;24.75;;;;;;;4.57;100.00;100042.19;1650251;84;20964;-71
2022/11/10 05:20:38;;;;;;;50.25;24.52;;;;;;;4.58;100.00;100051.17;1666201;84;21010;-83
2022/11/10 05:23:38;;;;;;;53.58;25.40;;;;;;;4.60;100.00;100062.60;1669854;84;21004;-74
2022/11/10 05:26:30;;;;;;;56.75;26.80;;;;;;;4.60;100.00;100062.60;1675902;84;21479;-75
2022/11/10 05:29:19;;;;;;;45.83;24.35;;;;;;;4.62;100.00;100067.23;1630501;84;21071;-74
2022/11/10 05:32:08;;;;;;;44.55;22.37;;;;;;;4.66;100.00;100066.95;1692168;83;21035;-75
2022/11/10 05:34:53;;;;;;;40.50;22.20;;;;;;;4.68;100.00;100071.59;1716422;83;21075;-80
2022/11/10 05:37:41;;;;;;;44.90;21.73;;;;;;;4.72;100.00;100073.24;1715665;83;20967;-74
2022/11/10 05:40:29;;;;;;;43.42;23.40;;;;;;;4.75;100.00;100069.99;1691784;82;20923;-74
2022/11/10 05:43:19;;;;;;;46.75;23.35;;;;;;;4.77;100.00;100075.45;1710750;83;20884;-74
2022/11/10 05:46:04;;;;;;;44.40;23.22;;;;;;;4.82;100.00;100082.81;1713657;83;20963;-75
2022/11/10 05:48:55;;;;;;;47.43;23.22;;;;;;;4.82;100.00;100082.81;1664357;85;21111;-73
2022/11/10 05:51:42;;;;;;;39.20;23.57;;;;;;;4.84;100.00;100084.19;1660740;84;21128;-77
2022/11/10 05:54:35;;;;;;;47.23;24.90;;;;;;;4.87;100.00;100091.00;1709600;82;21522;-73
2022/11/10 05:57:21;;;;;;;47.17;27.32;;;;;;;4.89;100.00;100095.09;1711839;82;20880;-72
2022/11/10 06:00:09;;;;;;;41.73;24.18;;;;;;;4.93;100.00;100092.66;1712848;82;20982;-73
2022/11/10 06:03:14;;;;;;;47.75;23.27;;;;;;;4.94;100.00;100096.48;1693580;83;20947;-74
2022/11/10 06:06:03;;;;;;;41.70;20.45;;;;;;;4.95;100.00;100097.30;1714337;82;20987;-73
2022/11/10 06:08:50;;;;;;;37.15;21.57;;;;;;;4.96;100.00;100101.11;1712756;83;21060;-74
2022/11/10 06:11:43;;;;;;;40.90;21.42;;;;;;;4.95;100.00;100098.66;1713507;83;20852;-73
2022/11/10 06:14:27;;;;;;;45.23;20.97;;;;;;;5.01;100.00;100098.95;1706524;82;21143;-74
2022/11/10 06:17:17;;;;;;;41.65;21.57;;;;;;;5.02;100.00;100101.95;1687135;83;20956;-74
2022/11/10 06:20:05;;;;;;;44.65;23.60;;;;;;;5.04;100.00;100106.59;1677520;84;20983;-74
2022/11/10 06:23:05;;;;;;;43.55;23.70;;;;;;;5.07;100.00;100104.70;1677051;84;21026;-74
2022/11/10 06:25:50;;;;;;;42.80;22.50;;;;;;;5.07;100.00;100104.70;1696678;83;20957;-74
2022/11/10 06:28:37;;;;;;;42.58;21.57;;;;;;;5.12;100.00;100102.00;1692633;84;20951;-74
2022/11/10 06:31:25;;;;;;;43.02;22.73;;;;;;;5.14;100.00;100105.27;1694244;83;21499;-74
2022/11/10 06:34:13;;;;;;;37.53;20.12;;;;;;;5.17;100.00;100108.83;1701050;84;21015;-74
2022/11/10 06:36:59;;;;;;;35.45;18.70;;;;;;;5.18;100.00;100105.02;1700264;83;21643;-73
2022/11/10 06:39:47;;;;;;;34.05;18.80;;;;;;;5.21;100.00;100105.81;1706191;83;21007;-72
2022/11/10 06:42:34;;;;;;;41.13;19.77;;;;;;;5.23;100.00;100106.37;1700295;84;21038;-71
2022/11/10 06:45:21;;;;;;;38.17;21.65;;;;;;;5.24;100.00;100106.64;1683702;84;21004;-73
2022/11/10 06:48:16;;;;;;;41.08;22.00;;;;;;;5.27;100.00;100110.73;1704566;82;20995;-74
2022/11/10 06:51:04;;;;;;;44.83;23.62;;;;;;;5.33;100.00;100111.58;1687840;83;21161;-77
2022/11/10 06:53:53;;;;;;;39.80;24.43;;;;;;;5.36;100.00;100114.58;1685981;83;20933;-78
2022/11/10 06:56:38;;;;;;;45.98;25.77;;;;;;;5.40;100.00;100112.14;1693086;84;20983;-78
2022/11/10 06:59:24;;;;;;;41.88;21.97;;;;;;;5.44;100.00;100109.98;1687165;83;21451;-79
2022/11/10 07:02:18;;;;;;;39.15;21.05;;;;;;;5.50;100.00;100099.38;1681419;84;20976;-79
2022/11/10 07:05:08;;;;;;;39.05;21.40;;;;;;;5.50;100.00;100099.38;1685331;84;21156;-77
2022/11/10 07:08:04;;;;;;;35.73;19.23;;;;;;;5.54;100.00;100110.00;1687448;83;21431;-75
2022/11/10 07:10:54;;;;;;;40.98;21.07;;;;;;;5.60;100.00;100110.84;1672653;83;21107;-72
2022/11/10 07:13:44;;;;;;;38.78;23.57;;;;;;;5.60;100.00;100109.47;1688271;84;20959;-73
2022/11/10 07:16:34;;;;;;;41.28;21.85;;;;;;;5.69;100.00;100110.58;1686949;84;20975;-74
2022/11/10 07:19:27;;;;;;;52.58;25.30;;;;;;;5.73;100.00;100118.49;1687322;84;21554;-74
2022/11/10 07:22:18;;;;;;;50.52;26.15;;;;;;;5.73;100.00;100118.49;1677307;84;21474;-73
2022/11/10 07:25:05;;;;;;;45.00;23.57;;;;;;;5.75;100.00;100114.95;1688538;83;21018;-73
2022/11/10 07:27:58;;;;;;;42.30;23.57;;;;;;;5.81;100.00;100122.56;1680810;84;38916;-73
2022/11/10 07:30:45;;;;;;;49.83;23.30;;;;;;;5.81;100.00;100122.56;1679832;85;20888;-73
2022/11/10 07:33:35;;;;;;;41.20;23.35;;;;;;;5.82;100.00;100119.56;1683821;84;21153;-73
2022/11/10 07:36:27;;;;;;;39.98;22.93;;;;;;;5.82;100.00;100119.56;1655717;85;20893;-72
2022/11/10 07:39:21;;;;;;;37.38;21.87;;;;;;;5.85;100.00;100114.94;1674684;84;20956;-73
2022/11/10 07:42:11;;;;;;;42.85;23.52;;;;;;;5.86;100.00;100119.30;1681036;83;20967;-75
2022/11/10 07:44:58;;;;;;;39.13;22.42;;;;;;;5.93;100.00;100122.61;1683571;83;20991;-71
2022/11/10 07:47:45;;;;;;;49.20;26.68;;;;;;;5.98;100.00;100127.25;1658272;85;20932;-73
2022/11/10 07:50:31;;;;;;;54.98;29.77;;;;;;;6.01;100.00;100123.16;1680250;84;20905;-73
2022/11/10 07:53:19;;;;;;;71.53;34.95;;;;;;;6.04;100.00;100128.08;1677393;84;21004;-73
2022/11/10 07:56:05;;;;;;;49.55;27.58;;;;;;;6.06;100.00;100128.08;1676132;84;21051;-72
2022/11/10 07:58:55;;;;;;;48.17;28.52;;;;;;;6.13;100.00;100128.63;1673162;83;21075;-72
2022/11/10 08:01:50;;;;;;;47.20;25.27;;;;;;;6.13;100.00;100128.63;1711209;82;21515;-74
2022/11/10 08:04:36;;;;;;;56.55;30.90;;;;;;;6.13;100.00;100127.81;1729769;82;20933;-74
2022/11/10 08:07:26;;;;;;;47.00;25.32;;;;;;;6.19;100.00;100137.62;1706786;82;20900;-74
2022/11/10 08:10:13;;;;;;;51.37;26.48;;;;;;;6.22;100.00;100137.90;1717276;82;20960;-74
2022/11/10 08:12:59;;;;;;;47.58;25.52;;;;;;;6.26;100.00;100140.35;1660200;84;21052;-73
2022/11/10 08:15:44;;;;;;;42.33;23.50;;;;;;;6.29;100.00;100138.98;1706451;82;21931;-73
2022/11/10 08:18:32;;;;;;;50.25;27.58;;;;;;;6.31;100.00;100135.98;1721031;82;20963;-72
2022/11/10 08:21:22;;;;;;;56.92;30.10;;;;;;;6.36;100.00;100139.50;1719044;81;20955;-72
2022/11/10 08:24:13;;;;;;;69.30;30.57;;;;;;;6.41;100.00;100135.41;1715127;81;21022;-73
2022/11/10 08:27:09;;;;;;;52.65;28.45;;;;;;;6.43;100.00;100141.41;1702503;82;21140;-72
2022/11/10 08:29:58;;;;;;;42.17;25.50;;;;;;;6.42;100.00;100146.59;1666287;84;21506;-72
2022/11/10 08:32:45;;;;;;;44.15;25.62;;;;;;;6.43;100.00;100141.95;1660317;84;21117;-74
2022/11/10 08:35:38;;;;;;;53.38;29.10;;;;;;;6.43;100.00;100148.23;1631760;85;20999;-73
2022/11/10 08:38:26;;;;;;;50.25;25.72;;;;;;;6.42;100.00;100141.14;1622528;86;21043;-73
2022/11/10 08:41:15;;;;;;;46.60;24.45;;;;;;;6.48;100.00;100142.77;1693626;83;21099;-73
2022/11/10 08:44:01;;;;;;;56.40;24.12;;;;;;;6.49;100.00;100137.59;1692352;84;21144;-73
2022/11/10 08:46:51;;;;;;;45.33;24.67;;;;;;;6.51;100.00;100142.22;1698443;84;21007;-73
2022/11/10 08:49:42;;;;;;;54.10;24.52;;;;;;;6.51;100.00;100146.31;1675773;83;21516;-73
2022/11/10 08:52:27;;;;;;;52.05;23.57;;;;;;;6.53;100.00;100144.13;1697398;84;21063;-73
2022/11/10 08:55:19;;;;;;;58.15;27.85;;;;;;;6.56;100.00;100144.12;1657068;86;20914;-73
2022/11/10 08:58:07;;;;;;;56.95;26.95;;;;;;;6.58;100.00;100141.40;1679529;84;21168;-71
2022/11/10 09:00:57;;;;;;;46.88;23.67;;;;;;;6.63;100.00;100152.30;1691300;83;20920;-72
2022/11/10 09:03:45;;;;;;;53.20;25.68;;;;;;;6.67;100.00;100149.84;1691448;84;20983;-73
2022/11/10 09:06:32;;;;;;;63.13;28.20;;;;;;;6.68;100.00;100147.39;1701131;84;20916;-73
2022/11/10 09:09:25;;;;;;;62.70;30.10;;;;;;;6.70;100.00;100148.48;1691359;84;20945;-72
2022/11/10 09:12:15;;;;;;;55.97;26.77;;;;;;;6.72;100.00;100144.92;1691733;84;21185;-73
2022/11/10 09:15:06;;;;;;;66.10;28.83;;;;;;;6.74;100.00;100146.83;1679227;84;20916;-72
2022/11/10 09:17:51;;;;;;;60.90;25.95;;;;;;;6.76;100.00;100154.20;1691505;84;21020;-73
2022/11/10 09:20:36;;;;;;;63.52;28.15;;;;;;;6.75;100.00;100143.02;1691405;84;21000;-74
2022/11/10 09:23:25;;;;;;;70.75;29.15;;;;;;;6.72;100.00;100138.92;1691514;84;20952;-73
2022/11/10 09:26:15;;;;;;;63.98;29.27;;;;;;;6.75;100.00;100140.28;1702699;83;21020;-73
2022/11/10 09:29:02;;;;;;;62.43;28.57;;;;;;;6.75;100.00;100140.28;1679317;84;21431;-73
2022/11/10 09:31:48;;;;;;;64.03;27.67;;;;;;;6.82;100.00;100140.81;1691444;84;21015;-73
2022/11/10 09:34:38;;;;;;;66.50;29.10;;;;;;;6.82;100.00;100140.81;1691553;84;20988;-74
2022/11/10 09:37:27;;;;;;;63.45;29.10;;;;;;;6.83;100.00;100137.81;1691397;84;20957;-73
2022/11/10 09:40:47;;;;;;;60.48;28.12;;;;;;;6.85;100.00;100140.27;1691329;84;21172;-72
2022/11/10 09:44:16;;;;;;;69.62;30.05;;;;;;;6.88;100.00;100138.34;1691297;84;21375;-73
2022/11/10 09:47:23;;;;;;;67.35;31.00;;;;;;;6.88;100.00;100135.62;1691242;84;21015;-72
2022/11/10 09:50:16;;;;;;;72.53;34.35;;;;;;;6.88;100.00;100142.44;1691482;84;20941;-73
2022/11/10 09:53:05;;;;;;;64.62;28.55;;;;;;;6.89;100.00;100134.52;1679232;84;20956;-74
2022/11/10 09:55:58;;;;;;;65.00;26.75;;;;;;;6.92;100.00;100140.25;1691185;84;21440;-73
2022/11/10 09:58:47;;;;;;;60.70;27.90;;;;;;;6.92;100.00;100142.97;1644776;87;21448;-74
2022/11/10 10:01:52;;;;;;;60.23;26.97;;;;;;;6.91;100.00;100143.25;1644814;87;20972;-72
2022/11/10 10:04:58;;;;;;;63.95;28.20;;;;;;;6.91;100.00;100139.16;1644788;87;21500;-73
2022/11/10 10:08:07;;;;;;;70.32;27.80;;;;;;;6.88;100.00;100145.98;1644889;87;21001;-75
2022/11/10 10:11:40;;;;;;;55.15;24.75;;;;;;;6.88;100.00;100145.98;1644877;87;21821;-73
2022/11/10 10:15:02;;;;;;;52.70;25.02;;;;;;;6.89;100.00;100147.62;1644939;86;23682;-74
2022/11/10 10:18:28;;;;;;;52.15;24.15;;;;;;;6.91;100.00;100144.61;1644963;87;20960;-74
2022/11/10 10:21:48;;;;;;;52.55;25.85;;;;;;;6.91;100.00;100143.25;1644761;87;20933;-72
2022/11/10 10:24:42;;;;;;;52.93;25.88;;;;;;;6.87;100.00;100132.62;1624397;87;21500;-74
2022/11/10 10:27:29;;;;;;;58.15;25.60;;;;;;;6.88;100.00;100140.53;1644622;87;21293;-72
2022/11/10 10:30:17;;;;;;;55.73;25.85;;;;;;;6.90;100.00;100130.15;1644602;87;20968;-72
2022/11/10 10:33:21;;;;;;;56.30;26.33;;;;;;;6.91;100.00;100134.52;1644734;87;21004;-72
2022/11/10 10:36:17;;;;;;;52.98;26.57;;;;;;;6.91;100.00;100134.52;1644670;87;21491;-72
2022/11/10 10:39:13;;;;;;;53.10;24.35;;;;;;;6.92;100.00;100133.97;1644471;87;21056;-72
2022/11/10 10:42:00;;;;;;;51.13;24.90;;;;;;;6.92;100.00;100136.70;1643137;87;21176;-73
2022/11/10 10:45:27;;;;;;;54.18;25.95;;;;;;;6.92;100.00;100139.42;1650556;84;21100;-73
2022/11/10 10:48:28;;;;;;;58.68;27.67;;;;;;;6.93;100.00;100141.06;1624911;87;20869;-73
2022/11/10 10:51:29;;;;;;;58.50;28.17;;;;;;;6.95;100.00;100147.84;1645059;87;20941;-74
2022/11/10 10:54:30;;;;;;;69.85;29.45;;;;;;;6.95;100.00;100146.48;1644142;86;20979;-72
2022/11/10 10:57:32;;;;;;;58.35;29.30;;;;;;;6.98;100.00;100160.13;1664400;84;20945;-72
2022/11/10 11:00:24;;;;;;;57.88;28.62;;;;;;;6.98;100.00;100146.48;1667343;84;20984;-73
2022/11/10 11:03:26;;;;;;;74.00;31.97;;;;;;;6.99;100.00;100144.02;1645079;87;21084;-72
2022/11/10 11:06:27;;;;;;;74.20;35.28;;;;;;;6.98;100.00;100147.03;1643591;87;20979;-73
2022/11/10 11:09:32;;;;;;;52.17;25.90;;;;;;;7.02;100.00;100146.20;1644805;87;21092;-73
2022/11/10 11:12:23;;;;;;;59.80;27.55;;;;;;;7.05;100.00;100150.28;1646191;85;21519;-73
2022/11/10 11:15:29;;;;;;;55.17;28.27;;;;;;;7.06;100.00;100147.82;1644842;86;20968;-74
2022/11/10 11:18:20;;;;;;;58.95;27.98;;;;;;;7.06;100.00;100130.89;1645042;87;20993;-73
2022/11/10 11:21:32;;;;;;;73.22;32.03;;;;;;;7.05;100.00;100142.09;1644828;87;21019;-73
2022/11/10 11:24:48;;;;;;;66.60;31.42;;;;;;;7.04;100.00;100154.92;1624448;87;21020;-74
2022/11/10 11:28:02;;;;;;;61.60;30.95;;;;;;;7.05;100.00;100135.27;1630277;87;21311;-72
2022/11/10 11:31:11;;;;;;;74.15;36.58;;;;;;;7.05;100.00;100140.18;1644741;87;21076;-74
2022/11/10 11:34:21;;;;;;;72.58;37.88;;;;;;;7.03;100.00;100138.27;1644935;87;21047;-73
2022/11/10 11:37:36;;;;;;;54.15;27.00;;;;;;;7.06;100.00;100134.98;1653639;84;21024;-74
2022/11/10 11:40:47;;;;;;;58.75;30.30;;;;;;;7.08;100.00;100134.71;1656343;85;20949;-74
2022/11/10 11:43:54;;;;;;;63.70;31.73;;;;;;;7.09;100.00;100136.34;1650489;85;21048;-73
2022/11/10 11:47:18;;;;;;;60.80;30.45;;;;;;;7.11;100.00;100139.06;1672094;85;20893;-74
2022/11/10 11:50:15;;;;;;;67.62;29.82;;;;;;;7.13;100.00;100142.89;1663986;84;21028;-73
2022/11/10 11:53:24;;;;;;;69.55;36.63;;;;;;;7.12;100.00;100140.70;1648181;85;21076;-73
2022/11/10 11:56:20;;;;;;;73.40;35.28;;;;;;;7.14;100.00;100143.97;1680883;83;21047;-73
2022/11/10 11:59:21;;;;;;;71.67;34.38;;;;;;;7.17;100.00;100145.33;1682218;83;21570;-74
2022/11/10 12:02:37;;;;;;;59.42;31.02;;;;;;;7.18;100.00;100142.88;1689068;83;21026;-74
2022/11/10 12:05:46;;;;;;;59.03;29.07;;;;;;;7.19;100.00;100138.50;1634638;84;20909;-74
2022/11/10 12:08:45;;;;;;;77.58;34.78;;;;;;;7.19;100.00;100137.67;1718689;82;20987;-74
2022/11/10 12:11:54;;;;;;;73.42;34.23;;;;;;;7.20;100.00;100139.31;1717616;82;21160;-73
2022/11/10 12:15:09;;;;;;;75.12;34.20;;;;;;;7.21;100.00;100125.93;1688808;83;21798;-74
2022/11/10 12:18:20;;;;;;;76.35;35.03;;;;;;;7.19;100.00;100130.30;1693541;83;21431;-74
2022/11/10 12:21:48;;;;;;;71.22;32.45;;;;;;;7.21;100.00;100127.30;1692029;84;21046;-73
2022/11/10 12:25:05;;;;;;;80.07;39.58;;;;;;;7.21;100.00;100125.93;1690049;83;20936;-72
2022/11/10 12:28:00;;;;;;;74.50;35.80;;;;;;;7.20;100.00;100127.84;1665572;85;21117;-74
2022/11/10 12:30:47;;;;;;;68.30;32.48;;;;;;;7.23;100.00;100136.02;1669429;84;21176;-74
2022/11/10 12:33:46;;;;;;;69.62;33.65;;;;;;;7.24;100.00;100130.28;1670128;85;21098;-74
2022/11/10 12:36:34;;;;;;;88.50;37.25;;;;;;;7.24;100.00;100130.28;1659210;85;21165;-73
2022/11/10 12:39:24;;;;;;;92.02;36.70;;;;;;;7.24;100.00;100130.83;1667977;85;21499;-74
2022/11/10 12:42:15;;;;;;;75.25;34.80;;;;;;;7.22;100.00;100128.37;1667999;84;21027;-73
2022/11/10 12:45:04;;;;;;;80.22;32.95;;;;;;;7.25;100.00;100133.83;1659789;85;21281;-73
2022/11/10 12:47:51;;;;;;;83.87;38.65;;;;;;;7.24;100.00;100139.84;1642902;86;20968;-74
2022/11/10 12:51:03;;;;;;;82.67;36.40;;;;;;;7.23;100.00;100130.02;1648258;85;21055;-74
2022/11/10 12:53:52;;;;;;;75.45;33.60;;;;;;;7.25;100.00;100131.10;1652223;86;21061;-73
2022/11/10 12:56:50;;;;;;;84.28;36.77;;;;;;;7.27;100.00;100135.73;1646984;86;21035;-73
2022/11/10 12:59:53;;;;;;;87.65;39.45;;;;;;;7.26;100.00;100134.92;1604518;87;21041;-73
2022/11/10 13:02:44;;;;;;;80.30;35.35;;;;;;;7.27;100.00;100148.03;1636237;86;21133;-73
2022/11/10 13:05:39;;;;;;;101.60;48.92;;;;;;;7.27;100.00;100151.58;1634716;86;21150;-74
2022/11/10 13:08:44;;;;;;;111.22;48.80;;;;;;;7.25;100.00;100152.95;1650394;83;21018;-73
2022/11/10 13:11:34;;;;;;;123.02;50.95;;;;;;;7.25;100.00;100153.77;1649189;85;21018;-73
2022/11/10 13:14:28;;;;;;;101.38;40.03;;;;;;;7.26;100.00;100166.33;1636259;86;21739;-74
2022/11/10 13:17:29;;;;;;;95.45;39.05;;;;;;;7.26;100.00;100165.51;1643408;86;21527;-78
2022/11/10 13:20:39;;;;;;;97.53;39.80;;;;;;;7.27;100.00;100165.78;1658188;85;21083;-77